Time;durP1;ratioP1;P1;durP2;ratioP2;P2;SDS_P1;SDS_P2;PMS_P1;PMS_P2;Temp;Humidity;BMP_temperature;BMP_pressure;BME280_temperature;BME280_humidity;BME280_pressure;Samples;Min_cycle;Max_cycle;Signal;HPM_P1;HPM_P2
2021/03/02 00:01:46;;;;;;;22.63;15.23;;;;;;;4.89;73.19;103218.28;4960728;28;20055;-73
2021/03/02 00:04:13;;;;;;;24.00;15.43;;;;;;;4.91;72.99;103216.47;4962184;28;20069;-73
2021/03/02 00:06:39;;;;;;;24.40;15.77;;;;;;;4.86;73.10;103221.00;4962096;28;20494;-74
2021/03/02 00:09:06;;;;;;;28.10;15.85;;;;;;;4.81;73.38;103216.84;4960317;28;20225;-74
2021/03/02 00:11:43;;;;;;;24.92;15.73;;;;;;;4.80;73.21;103218.59;4965811;28;20059;-74
2021/03/02 00:14:09;;;;;;;25.10;16.30;;;;;;;4.74;73.36;103218.78;4942037;28;20050;-74
2021/03/02 00:16:42;;;;;;;25.67;14.95;;;;;;;4.74;73.67;103223.97;4962630;28;20149;-74
2021/03/02 00:19:13;;;;;;;26.58;16.35;;;;;;;4.70;73.69;103223.22;4955728;28;20098;-74
2021/03/02 00:21:44;;;;;;;26.20;15.23;;;;;;;4.72;73.63;103220.59;4966065;28;20589;-74
2021/03/02 00:24:14;;;;;;;25.90;15.80;;;;;;;4.71;73.62;103229.31;4960197;28;20580;-72
2021/03/02 00:26:47;;;;;;;24.75;15.02;;;;;;;4.67;73.61;103218.16;4949063;28;20074;-73
2021/03/02 00:29:14;;;;;;;24.85;14.85;;;;;;;4.66;72.91;103216.44;4935086;28;20097;-73
2021/03/02 00:31:42;;;;;;;24.70;14.40;;;;;;;4.64;73.23;103213.03;4961413;28;20086;-73
2021/03/02 00:34:08;;;;;;;25.73;15.00;;;;;;;4.62;73.13;103209.63;4961428;28;20061;-73
2021/03/02 00:36:34;;;;;;;24.65;14.88;;;;;;;4.62;73.23;103214.81;4945327;28;20090;-73
2021/03/02 00:39:00;;;;;;;21.83;13.98;;;;;;;4.57;72.93;103211.53;4957835;28;20062;-73
2021/03/02 00:41:26;;;;;;;24.85;15.02;;;;;;;4.54;73.09;103209.03;4960388;28;20065;-73
2021/03/02 00:43:53;;;;;;;25.63;15.20;;;;;;;4.56;73.24;103217.63;4967664;28;20064;-73
2021/03/02 00:46:28;;;;;;;21.30;14.60;;;;;;;4.55;73.35;103211.59;4962621;28;20054;-74
2021/03/02 00:48:54;;;;;;;27.08;15.27;;;;;;;4.57;73.40;103214.16;4950121;28;20061;-74
2021/03/02 00:51:20;;;;;;;26.00;15.20;;;;;;;4.55;73.47;103205.53;4946562;28;20059;-74
2021/03/02 00:53:46;;;;;;;26.60;15.52;;;;;;;4.51;73.54;103197.00;4959993;28;20062;-74
2021/03/02 00:56:12;;;;;;;24.08;15.48;;;;;;;4.54;73.57;103199.47;4969696;28;20066;-74
2021/03/02 00:58:39;;;;;;;26.98;15.30;;;;;;;4.49;73.63;103204.00;4960954;28;20065;-74
2021/03/02 01:01:05;;;;;;;25.92;16.50;;;;;;;4.52;74.03;103205.63;4945638;28;20137;-73
2021/03/02 01:03:31;;;;;;;24.30;14.77;;;;;;;4.48;73.44;103196.22;4960167;28;20062;-74
2021/03/02 01:05:57;;;;;;;28.48;15.90;;;;;;;4.46;73.62;103206.66;4967178;28;20061;-75
2021/03/02 01:08:23;;;;;;;26.58;16.02;;;;;;;4.42;73.69;103205.06;4961630;28;20411;-74
2021/03/02 01:10:50;;;;;;;27.48;16.23;;;;;;;4.36;74.34;103200.91;4966385;28;20054;-74
2021/03/02 01:13:17;;;;;;;26.92;16.17;;;;;;;4.36;73.98;103200.91;4959892;28;20058;-75
2021/03/02 01:15:43;;;;;;;26.88;16.35;;;;;;;4.34;73.60;103194.06;4958426;28;20229;-74
2021/03/02 01:18:09;;;;;;;23.00;15.68;;;;;;;4.34;73.74;103194.91;4967271;28;20062;-75
2021/03/02 01:20:36;;;;;;;26.52;15.93;;;;;;;4.31;73.92;103199.34;4947171;28;20498;-74
2021/03/02 01:23:02;;;;;;;28.48;16.00;;;;;;;4.30;73.78;103195.06;4966517;28;20058;-74
2021/03/02 01:25:28;;;;;;;24.73;15.95;;;;;;;4.27;74.18;103198.63;4958402;28;20117;-74
2021/03/02 01:27:54;;;;;;;26.48;16.13;;;;;;;4.27;74.01;103198.63;4962754;28;20051;-74
2021/03/02 01:30:22;;;;;;;27.38;16.42;;;;;;;4.25;73.85;103189.16;4954592;28;20051;-74
2021/03/02 01:32:48;;;;;;;25.50;15.55;;;;;;;4.19;73.47;103192.78;4960562;28;20067;-74
2021/03/02 01:35:15;;;;;;;27.35;16.92;;;;;;;4.21;73.75;103187.53;4967067;28;20058;-74
2021/03/02 01:37:42;;;;;;;27.83;17.38;;;;;;;4.21;73.85;103185.78;4943057;28;20070;-74
2021/03/02 01:40:14;;;;;;;26.10;16.90;;;;;;;4.16;74.02;103195.47;4944158;28;20191;-74
2021/03/02 01:42:41;;;;;;;27.50;16.27;;;;;;;4.14;73.92;103177.34;4935635;28;20637;-74
2021/03/02 01:45:09;;;;;;;27.73;17.20;;;;;;;4.09;74.00;103174.03;4947202;28;20942;-74
2021/03/02 01:47:36;;;;;;;30.15;16.58;;;;;;;4.10;74.32;103188.72;4941344;28;20158;-75
2021/03/02 01:50:04;;;;;;;26.95;16.23;;;;;;;4.10;74.33;103182.69;4960336;28;20054;-74
2021/03/02 01:52:31;;;;;;;30.33;16.27;;;;;;;4.06;74.25;103178.47;4944793;28;20603;-74
2021/03/02 01:54:57;;;;;;;27.73;15.77;;;;;;;4.05;74.03;103192.34;4938367;28;20450;-75
2021/03/02 01:57:23;;;;;;;29.20;16.30;;;;;;;3.96;74.44;103183.94;4966284;28;20062;-75
2021/03/02 01:59:50;;;;;;;25.27;15.68;;;;;;;3.97;74.61;103180.44;4953979;28;20061;-75
2021/03/02 02:02:36;;;;;;;28.85;16.45;;;;;;;3.90;74.54;103170.28;4948212;28;20070;-75
2021/03/02 02:05:06;;;;;;;26.25;15.80;;;;;;;3.92;75.00;103171.06;4950401;28;20067;-75
2021/03/02 02:07:37;;;;;;;31.55;17.80;;;;;;;3.88;74.62;103167.75;4958655;28;20062;-75
2021/03/02 02:10:17;;;;;;;26.60;16.55;;;;;;;3.89;74.54;103172.03;4957544;28;20565;-74
2021/03/02 02:12:48;;;;;;;26.45;16.65;;;;;;;3.87;74.48;103173.81;4965383;28;21054;-74
2021/03/02 02:15:26;;;;;;;29.13;17.23;;;;;;;3.83;74.54;103163.56;4946219;28;20158;-74
2021/03/02 02:18:00;;;;;;;28.52;16.58;;;;;;;3.81;74.71;103166.22;4955023;28;20063;-74
2021/03/02 02:20:38;;;;;;;26.60;17.20;;;;;;;3.82;74.66;103164.47;4939675;28;21041;-74
2021/03/02 02:23:24;;;;;;;28.10;16.83;;;;;;;3.80;74.71;103164.50;4952238;28;20097;-74
2021/03/02 02:25:50;;;;;;;30.73;17.42;;;;;;;3.79;75.02;103167.16;4953439;28;20063;-75
2021/03/02 02:28:19;;;;;;;28.65;16.65;;;;;;;3.79;74.33;103165.41;4947180;28;20173;-75
2021/03/02 02:30:56;;;;;;;31.42;16.63;;;;;;;3.77;74.17;103164.59;4947103;28;20867;-74
2021/03/02 02:33:25;;;;;;;29.58;17.75;;;;;;;3.72;74.66;103159.56;4950733;28;20131;-74
2021/03/02 02:35:52;;;;;;;30.27;17.58;;;;;;;3.74;74.71;103160.38;4956805;28;20540;-74
2021/03/02 02:38:20;;;;;;;27.10;17.23;;;;;;;3.70;74.60;103157.88;4942287;28;20455;-75
2021/03/02 02:40:49;;;;;;;28.65;16.90;;;;;;;3.63;74.45;103143.41;4961998;28;20086;-75
2021/03/02 02:43:20;;;;;;;26.48;17.10;;;;;;;3.63;74.11;103143.41;4959251;28;20572;-75
2021/03/02 02:45:46;;;;;;;29.95;18.05;;;;;;;3.61;74.47;103159.00;4965057;28;20145;-74
2021/03/02 02:48:13;;;;;;;30.85;17.25;;;;;;;3.57;74.71;103154.81;4952289;28;20134;-74
2021/03/02 02:50:40;;;;;;;27.63;16.65;;;;;;;3.55;74.59;103151.41;4953749;28;20113;-75
2021/03/02 02:53:07;;;;;;;28.58;16.50;;;;;;;3.52;75.23;103152.31;4965007;28;20660;-75
2021/03/02 02:55:57;;;;;;;28.98;16.40;;;;;;;3.51;75.19;103147.19;4959114;28;20062;-75
2021/03/02 02:58:30;;;;;;;33.22;17.58;;;;;;;3.46;75.41;103147.31;4947683;28;20137;-75
2021/03/02 03:01:01;;;;;;;29.48;17.83;;;;;;;3.49;75.60;103152.41;4954841;28;20063;-74
2021/03/02 03:03:28;;;;;;;29.95;17.13;;;;;;;3.49;75.37;103149.81;4948900;28;20117;-75
2021/03/02 03:05:58;;;;;;;29.95;16.98;;;;;;;3.45;75.62;103136.97;4938270;28;20063;-75
2021/03/02 03:08:31;;;;;;;32.50;18.25;;;;;;;3.48;75.63;103148.13;4965047;28;20114;-75
2021/03/02 03:10:59;;;;;;;30.83;17.30;;;;;;;3.41;76.05;103143.13;4943095;28;20229;-74
2021/03/02 03:13:31;;;;;;;29.77;17.23;;;;;;;3.44;75.59;103156.03;4964964;28;20098;-75
2021/03/02 03:16:00;;;;;;;30.40;16.73;;;;;;;3.42;75.72;103150.03;4960684;28;20141;-75
2021/03/02 03:18:33;;;;;;;31.80;17.83;;;;;;;3.40;76.23;103151.81;4958247;28;20082;-73
2021/03/02 03:20:59;;;;;;;32.45;19.00;;;;;;;3.41;75.75;103150.91;4965721;28;20128;-74
2021/03/02 03:23:26;;;;;;;31.05;18.50;;;;;;;3.33;75.65;103148.53;4959034;28;20235;-73
2021/03/02 03:25:53;;;;;;;30.25;18.67;;;;;;;3.30;76.20;103135.66;4965202;28;20125;-73
2021/03/02 03:28:22;;;;;;;32.15;17.92;;;;;;;3.34;76.18;103152.84;4955396;28;20499;-73
2021/03/02 03:30:49;;;;;;;34.95;18.77;;;;;;;3.31;75.95;103139.94;4956588;28;20099;-73
2021/03/02 03:33:18;;;;;;;33.70;19.33;;;;;;;3.33;75.98;103156.31;4952935;28;20062;-73
2021/03/02 03:35:45;;;;;;;32.83;18.25;;;;;;;3.29;76.31;103150.38;4965155;28;20064;-74
2021/03/02 03:38:11;;;;;;;27.83;17.75;;;;;;;3.27;76.35;103152.16;4964775;28;20057;-74
2021/03/02 03:40:38;;;;;;;30.08;17.95;;;;;;;3.25;75.99;103147.91;4958551;28;20063;-74
2021/03/02 03:43:04;;;;;;;31.90;18.88;;;;;;;3.29;76.02;103142.59;4959957;28;20094;-74
2021/03/02 03:45:31;;;;;;;34.22;17.83;;;;;;;3.30;76.56;103148.63;4955395;28;20161;-74
2021/03/02 03:47:57;;;;;;;32.83;17.67;;;;;;;3.24;76.09;103136.69;4965276;28;20558;-73
2021/03/02 03:50:24;;;;;;;31.98;18.25;;;;;;;3.28;75.88;103140.03;4958353;28;20526;-74
2021/03/02 03:52:53;;;;;;;33.80;18.08;;;;;;;3.27;76.39;103143.50;4941669;28;20083;-74
2021/03/02 03:55:24;;;;;;;34.00;18.80;;;;;;;3.29;75.53;103140.00;4936566;28;20256;-73
2021/03/02 03:57:51;;;;;;;32.65;18.58;;;;;;;3.29;75.94;103152.97;4969701;28;20063;-74
2021/03/02 04:00:18;;;;;;;30.70;18.13;;;;;;;3.26;75.48;103149.63;4939538;28;20110;-74
2021/03/02 04:02:45;;;;;;;31.25;17.00;;;;;;;3.21;75.85;103149.72;4957592;28;20086;-74
2021/03/02 04:05:12;;;;;;;36.87;20.63;;;;;;;3.21;75.65;103146.28;4947517;28;20055;-74
2021/03/02 04:07:39;;;;;;;35.75;20.67;;;;;;;3.15;75.99;103137.75;4958645;28;20129;-74
2021/03/02 04:10:08;;;;;;;31.75;18.10;;;;;;;3.15;76.14;103142.94;4960857;28;20149;-74
2021/03/02 04:12:41;;;;;;;32.00;17.98;;;;;;;3.13;75.77;103143.91;4953398;28;20510;-74
2021/03/02 04:15:26;;;;;;;30.30;18.30;;;;;;;3.17;75.53;103151.56;4964633;28;20058;-76
2021/03/02 04:17:55;;;;;;;32.35;19.08;;;;;;;3.15;75.64;103134.31;4958555;28;20505;-75
2021/03/02 04:20:21;;;;;;;31.25;18.30;;;;;;;3.17;75.66;103143.78;4933868;28;20184;-75
2021/03/02 04:22:48;;;;;;;29.30;16.65;;;;;;;3.14;75.59;103127.44;4938892;28;20071;-75
2021/03/02 04:25:14;;;;;;;31.58;18.95;;;;;;;3.19;75.83;103140.28;4962699;28;20062;-75
2021/03/02 04:27:40;;;;;;;27.40;17.52;;;;;;;3.17;75.86;103146.38;4964583;28;20106;-75
2021/03/02 04:30:07;;;;;;;35.30;17.08;;;;;;;3.16;75.37;103144.66;4957240;28;20561;-75
2021/03/02 04:32:34;;;;;;;32.00;17.85;;;;;;;3.09;75.47;103130.16;4963325;28;20085;-76
2021/03/02 04:35:01;;;;;;;32.33;17.95;;;;;;;3.11;75.59;103135.31;4941392;28;20062;-74
2021/03/02 04:37:27;;;;;;;31.10;18.88;;;;;;;3.06;75.78;103135.44;4957508;28;20098;-75
2021/03/02 04:39:53;;;;;;;32.67;17.48;;;;;;;3.05;75.63;103132.88;4934280;28;20152;-74
2021/03/02 04:42:19;;;;;;;28.85;17.48;;;;;;;3.05;75.87;103133.72;4949217;28;20162;-74
2021/03/02 04:44:45;;;;;;;31.38;18.13;;;;;;;3.04;75.89;103133.75;4950645;28;20089;-75
2021/03/02 04:47:11;;;;;;;32.95;17.55;;;;;;;3.00;75.82;103135.59;4961665;28;20086;-75
2021/03/02 04:49:38;;;;;;;31.30;18.63;;;;;;;2.95;76.08;103138.28;4946797;28;20058;-75
2021/03/02 04:52:04;;;;;;;29.15;17.23;;;;;;;2.95;76.23;103142.63;4954712;28;20065;-75
2021/03/02 04:54:30;;;;;;;31.00;17.73;;;;;;;2.95;76.10;103137.47;4963979;28;20090;-75
2021/03/02 04:56:56;;;;;;;35.28;18.92;;;;;;;2.94;76.43;103133.16;4958547;28;20814;-74
2021/03/02 04:59:22;;;;;;;29.33;18.02;;;;;;;2.95;76.34;103134.88;4969885;28;20101;-75
2021/03/02 05:01:48;;;;;;;31.75;18.42;;;;;;;2.96;76.17;103136.59;4936667;28;20059;-74
2021/03/02 05:04:14;;;;;;;37.00;18.65;;;;;;;2.95;76.28;103140.88;4955065;28;20157;-75
2021/03/02 05:06:40;;;;;;;31.90;17.38;;;;;;;2.95;75.94;103140.03;4961660;28;20189;-74
2021/03/02 05:09:06;;;;;;;31.75;18.00;;;;;;;2.89;76.83;103141.06;4955385;28;20120;-74
2021/03/02 05:11:33;;;;;;;32.13;18.42;;;;;;;2.93;76.10;103144.41;4942752;28;20466;-74
2021/03/02 05:13:59;;;;;;;34.20;18.88;;;;;;;2.90;76.17;103140.19;4952618;28;20066;-75
2021/03/02 05:16:25;;;;;;;31.30;18.65;;;;;;;2.89;76.23;103141.06;4958264;28;20066;-75
2021/03/02 05:18:51;;;;;;;32.42;18.27;;;;;;;2.88;75.99;103147.16;4946769;28;20086;-75
2021/03/02 05:21:17;;;;;;;31.38;17.58;;;;;;;2.86;76.44;103146.34;4955356;28;20145;-75
2021/03/02 05:23:43;;;;;;;34.10;17.95;;;;;;;2.85;76.16;103147.22;4966511;28;20066;-76
2021/03/02 05:26:09;;;;;;;31.48;18.92;;;;;;;2.78;76.57;103130.09;4962669;28;20082;-75
2021/03/02 05:28:35;;;;;;;33.58;17.65;;;;;;;2.80;76.64;103141.28;4963907;28;20065;-75
2021/03/02 05:31:01;;;;;;;32.97;18.42;;;;;;;2.79;76.41;103141.34;4949584;28;20055;-76
2021/03/02 05:33:28;;;;;;;30.35;17.02;;;;;;;2.81;76.84;103140.41;4944993;28;20652;-75
2021/03/02 05:35:54;;;;;;;31.38;18.10;;;;;;;2.80;76.31;103137.84;4951525;28;20090;-76
2021/03/02 05:38:21;;;;;;;34.97;19.35;;;;;;;2.80;76.59;103127.47;4968204;28;20050;-75
2021/03/02 05:40:47;;;;;;;31.50;19.73;;;;;;;2.73;76.55;103125.03;4961310;28;20058;-75
2021/03/02 05:43:16;;;;;;;32.20;17.30;;;;;;;2.74;76.90;103136.25;4965746;28;20707;-75
2021/03/02 05:45:44;;;;;;;34.33;18.95;;;;;;;2.79;77.08;103138.75;4961733;28;20558;-74
2021/03/02 05:48:11;;;;;;;30.00;18.08;;;;;;;2.76;76.84;103134.47;4950251;28;20445;-74
2021/03/02 05:50:37;;;;;;;36.28;20.65;;;;;;;2.75;76.94;103130.19;4951516;28;20063;-75
2021/03/02 05:53:04;;;;;;;31.63;19.05;;;;;;;2.74;76.64;103131.94;4947819;28;20273;-74
2021/03/02 05:55:35;;;;;;;31.48;18.73;;;;;;;2.73;76.65;103129.38;4966352;28;20482;-75
2021/03/02 05:58:05;;;;;;;31.52;17.48;;;;;;;2.73;76.37;103125.03;4947417;28;20062;-74
2021/03/02 06:00:59;;;;;;;33.95;16.90;;;;;;;2.71;76.67;103131.16;4961719;28;20073;-75
2021/03/02 06:03:26;;;;;;;28.48;17.95;;;;;;;2.71;76.49;103136.34;4952943;28;20106;-75
2021/03/02 06:05:54;;;;;;;30.77;17.70;;;;;;;2.69;76.04;103130.34;4958671;28;20117;-74
2021/03/02 06:08:21;;;;;;;29.45;17.25;;;;;;;2.65;76.59;103134.75;4938560;28;20074;-74
2021/03/02 06:10:47;;;;;;;28.35;17.80;;;;;;;2.62;76.56;103133.97;4952550;28;20140;-74
2021/03/02 06:13:13;;;;;;;33.38;18.85;;;;;;;2.62;76.54;103132.22;4948531;28;20160;-74
2021/03/02 06:15:56;;;;;;;38.10;20.35;;;;;;;2.58;76.32;103130.59;4942792;28;20062;-74
2021/03/02 06:18:23;;;;;;;32.40;19.05;;;;;;;2.55;76.67;103128.09;4948258;28;20058;-74
2021/03/02 06:20:51;;;;;;;35.45;18.98;;;;;;;2.56;76.83;103132.38;4959187;28;20145;-74
2021/03/02 06:23:28;;;;;;;30.63;18.83;;;;;;;2.56;76.66;103132.38;4948005;28;20920;-74
2021/03/02 06:25:55;;;;;;;32.15;18.13;;;;;;;2.59;76.84;103132.31;4936812;28;20074;-74
2021/03/02 06:28:44;;;;;;;33.08;18.05;;;;;;;2.63;76.97;103138.28;4959270;28;20473;-74
2021/03/02 06:31:30;;;;;;;33.65;19.55;;;;;;;2.66;76.87;103135.59;4959722;28;20569;-75
2021/03/02 06:34:11;;;;;;;32.85;18.98;;;;;;;2.63;77.26;103133.94;4964733;28;20138;-75
2021/03/02 06:36:41;;;;;;;30.75;17.35;;;;;;;2.65;77.20;103144.28;4959677;28;20074;-75
2021/03/02 06:39:23;;;;;;;35.50;19.40;;;;;;;2.65;77.58;103141.69;4943266;28;20129;-75
2021/03/02 06:41:51;;;;;;;34.40;19.30;;;;;;;2.65;77.28;103141.69;4957429;28;20094;-75
2021/03/02 06:44:17;;;;;;;33.78;17.38;;;;;;;2.65;77.28;103136.50;4965648;28;20054;-75
2021/03/02 06:46:43;;;;;;;30.70;18.30;;;;;;;2.69;77.38;103135.53;4965802;28;20570;-75
2021/03/02 06:49:10;;;;;;;27.75;17.42;;;;;;;2.68;77.63;103141.59;4959068;28;20057;-75
2021/03/02 06:51:38;;;;;;;31.90;18.50;;;;;;;2.70;77.46;103143.25;4944107;28;20887;-75
2021/03/02 06:54:08;;;;;;;32.75;19.42;;;;;;;2.70;77.60;103139.81;4935733;28;20058;-75
2021/03/02 06:56:36;;;;;;;30.02;17.42;;;;;;;2.73;77.47;103150.13;4970182;28;20503;-74
2021/03/02 06:59:12;;;;;;;28.48;17.33;;;;;;;2.61;77.30;103127.94;4964802;28;20554;-75
2021/03/02 07:09:11;;;;;;;29.25;17.48;;;;;;;2.85;77.83;103160.16;4957386;28;20062;-75
2021/03/02 07:11:39;;;;;;;28.83;17.15;;;;;;;2.85;77.47;103155.00;4965420;28;20059;-74
2021/03/02 07:14:10;;;;;;;25.70;17.08;;;;;;;2.89;77.48;103154.00;4947721;28;20070;-74
2021/03/02 07:16:43;;;;;;;28.70;16.63;;;;;;;2.89;77.63;103148.84;4958605;28;20177;-74
2021/03/02 07:19:15;;;;;;;31.40;18.23;;;;;;;2.93;78.02;103159.97;4935329;28;20070;-75
2021/03/02 07:21:43;;;;;;;29.20;16.63;;;;;;;2.97;77.56;103164.19;4934861;28;20145;-75
2021/03/02 07:24:13;;;;;;;29.40;17.80;;;;;;;3.01;77.35;103160.63;4954058;28;20070;-74
2021/03/02 07:26:44;;;;;;;30.70;17.80;;;;;;;3.06;77.45;103157.91;4958816;28;20153;-75
2021/03/02 07:29:11;;;;;;;28.33;17.35;;;;;;;3.07;77.17;103157.88;4944606;29;20055;-75
2021/03/02 07:31:38;;;;;;;32.30;18.85;;;;;;;3.09;77.74;103163.03;4953349;28;20086;-75
2021/03/02 07:34:07;;;;;;;28.48;17.38;;;;;;;3.10;77.58;103154.38;4959620;28;20467;-75
2021/03/02 07:36:40;;;;;;;28.17;17.48;;;;;;;3.17;77.33;103164.53;4958583;28;20074;-75
2021/03/02 07:39:11;;;;;;;28.55;16.88;;;;;;;3.19;77.88;103164.47;4946756;28;20125;-74
2021/03/02 07:41:37;;;;;;;26.73;15.88;;;;;;;3.24;77.72;103169.56;4929217;29;20168;-75
2021/03/02 07:44:04;;;;;;;26.73;16.23;;;;;;;3.22;77.74;103163.56;4957367;28;20137;-74
2021/03/02 07:46:36;;;;;;;26.33;16.30;;;;;;;3.28;77.82;103172.03;4961630;28;20641;-75
2021/03/02 07:49:21;;;;;;;29.05;16.40;;;;;;;3.32;77.86;103170.19;4922076;28;20069;-75
2021/03/02 07:51:56;;;;;;;27.75;17.15;;;;;;;3.36;77.71;103174.41;4955236;28;20082;-76
2021/03/02 07:54:23;;;;;;;26.95;16.67;;;;;;;3.35;77.63;103168.38;4959382;28;20067;-74
2021/03/02 07:57:12;;;;;;;26.27;16.83;;;;;;;3.45;77.66;103173.28;4972699;28;20058;-73
2021/03/02 07:59:39;;;;;;;27.10;15.75;;;;;;;3.50;77.39;103168.84;4954417;28;20054;-75
2021/03/02 08:02:20;;;;;;;25.88;16.35;;;;;;;3.52;77.41;103170.47;4933072;28;20154;-73
2021/03/02 08:04:53;;;;;;;28.35;18.35;;;;;;;3.48;77.25;103168.88;4955404;28;20145;-74
2021/03/02 08:07:24;;;;;;;25.83;17.52;;;;;;;3.50;77.34;103174.88;4947822;28;20059;-73
2021/03/02 08:09:53;;;;;;;30.38;18.60;;;;;;;3.55;77.00;103178.19;4946442;28;20141;-74
2021/03/02 08:12:34;;;;;;;31.48;19.80;;;;;;;3.60;77.09;103179.81;4966080;28;20066;-76
2021/03/02 08:15:02;;;;;;;27.98;18.30;;;;;;;3.61;77.00;103178.91;4946909;28;20058;-75
2021/03/02 08:17:28;;;;;;;27.57;17.90;;;;;;;3.67;76.62;103176.16;4960199;28;20063;-75
2021/03/02 08:20:05;;;;;;;29.30;19.65;;;;;;;3.73;77.10;103183.75;4967871;28;20287;-74
2021/03/02 08:22:33;;;;;;;30.17;18.77;;;;;;;3.76;76.99;103178.47;4961331;28;20090;-73
2021/03/02 08:25:27;;;;;;;29.15;18.73;;;;;;;3.75;76.70;103174.19;4968086;28;20153;-74
2021/03/02 08:27:59;;;;;;;28.15;18.70;;;;;;;3.81;76.51;103178.34;4947025;28;20728;-74
2021/03/02 08:30:37;;;;;;;28.52;18.73;;;;;;;3.75;76.17;103167.25;4962080;28;20117;-74
2021/03/02 08:33:07;;;;;;;29.67;19.33;;;;;;;3.87;76.54;103188.56;4944841;28;20070;-75
2021/03/02 08:35:41;;;;;;;25.65;17.10;;;;;;;3.86;76.57;103186.84;4967028;28;20148;-75
2021/03/02 08:38:12;;;;;;;29.27;18.85;;;;;;;3.94;76.36;103182.28;4960200;28;20058;-74
2021/03/02 08:40:40;;;;;;;;;;;;;;;3.95;76.40;103186.56;4961592;28;20216;-75
2021/03/02 08:43:13;;;;;;;27.45;16.88;;;;;;;4.01;76.09;103182.97;4937424;28;19931;-74
2021/03/02 08:45:41;;;;;;;25.17;15.90;;;;;;;4.07;76.20;103187.97;4952772;28;20138;-75
2021/03/02 08:48:18;;;;;;;29.00;17.73;;;;;;;4.08;76.12;103180.13;4967778;28;20086;-75
2021/03/02 08:50:46;;;;;;;27.60;17.05;;;;;;;4.16;76.11;103190.28;4947513;28;20795;-75
2021/03/02 08:53:33;;;;;;;25.95;17.20;;;;;;;4.22;76.24;103181.47;4967582;28;20395;-75
2021/03/02 08:56:02;;;;;;;24.92;17.30;;;;;;;4.27;76.49;103184.75;4927368;28;20047;-74
2021/03/02 08:58:33;;;;;;;29.33;16.65;;;;;;;4.31;75.87;103184.63;4958115;28;20491;-75
2021/03/02 09:01:02;;;;;;;26.58;17.58;;;;;;;4.38;75.61;103179.22;4942393;28;20467;-75
2021/03/02 09:03:29;;;;;;;26.75;17.52;;;;;;;4.39;75.86;103178.31;4946566;29;20090;-75
2021/03/02 09:06:11;;;;;;;24.27;16.00;;;;;;;4.47;75.68;103177.19;4959763;28;20061;-75
2021/03/02 09:08:56;;;;;;;27.55;16.92;;;;;;;4.51;75.71;103183.16;4952021;28;20113;-75
2021/03/02 09:11:26;;;;;;;26.40;17.15;;;;;;;4.56;75.54;103179.47;4927451;28;20515;-75
2021/03/02 09:13:54;;;;;;;25.67;17.05;;;;;;;4.59;75.79;103169.88;4947055;28;20114;-75
2021/03/02 09:16:23;;;;;;;21.77;15.23;;;;;;;4.67;75.49;103175.69;4957179;28;20094;-75
2021/03/02 09:19:19;;;;;;;24.50;15.82;;;;;;;4.75;75.46;103171.09;4949645;28;20059;-75
2021/03/02 09:21:51;;;;;;;23.55;16.65;;;;;;;4.82;75.56;103171.72;4935115;28;20426;-75
2021/03/02 09:24:48;;;;;;;26.08;16.52;;;;;;;4.90;76.05;103167.13;4947988;28;20066;-74
2021/03/02 09:27:17;;;;;;;27.07;16.73;;;;;;;4.99;75.38;103179.81;4949045;28;20059;-74
2021/03/02 09:29:43;;;;;;;;;;;;;;;5.04;75.83;103180.53;4955522;28;20285;-74
2021/03/02 09:32:14;;;;;;;26.35;16.77;;;;;;;5.13;75.91;103172.38;4965436;28;19976;-75
2021/03/02 09:34:43;;;;;;;25.42;16.98;;;;;;;5.22;75.43;103170.38;4957781;28;20058;-75
2021/03/02 09:37:16;;;;;;;22.95;14.32;;;;;;;5.29;75.61;103167.50;4946579;28;20550;-75
2021/03/02 09:40:04;;;;;;;23.10;15.55;;;;;;;5.40;75.00;103174.91;4960591;28;20106;-75
2021/03/02 09:42:33;;;;;;;21.90;14.05;;;;;;;5.51;75.08;103174.56;4964378;28;20086;-75
2021/03/02 09:45:09;;;;;;;21.48;14.65;;;;;;;5.59;75.57;103172.50;4943831;28;20066;-75
2021/03/02 09:47:36;;;;;;;24.25;15.13;;;;;;;5.70;74.73;103169.50;4961753;28;20063;-74
2021/03/02 09:50:15;;;;;;;21.92;14.88;;;;;;;5.84;75.39;103169.84;4956284;28;20063;-74
2021/03/02 09:52:46;;;;;;;24.27;15.48;;;;;;;5.98;74.60;103163.28;4963540;28;20062;-75
2021/03/02 09:55:15;;;;;;;20.98;13.57;;;;;;;6.16;74.55;103172.16;4961059;28;20145;-75
2021/03/02 09:57:58;;;;;;;21.02;14.07;;;;;;;6.30;74.05;103167.25;4960976;28;20078;-75
2021/03/02 10:00:30;;;;;;;24.80;14.27;;;;;;;6.48;73.93;103169.09;4939616;28;20090;-75
2021/03/02 10:02:59;;;;;;;21.08;14.02;;;;;;;6.64;73.30;103169.31;4956648;28;20105;-74
2021/03/02 10:05:37;;;;;;;23.20;14.25;;;;;;;6.78;73.46;103163.53;4938355;29;20067;-75
2021/03/02 10:08:19;;;;;;;;;;;;;;;6.95;72.76;103168.03;4955783;28;20066;-74
2021/03/02 10:10:46;;;;;;;20.63;13.77;;;;;;;7.10;72.10;103159.56;4966057;28;19981;-74
2021/03/02 10:13:21;;;;;;;21.75;14.95;;;;;;;7.23;72.11;103157.28;4941917;28;20061;-74
2021/03/02 10:15:47;;;;;;;20.83;13.85;;;;;;;7.42;71.28;103159.91;4944603;28;20133;-75
2021/03/02 10:18:25;;;;;;;24.17;14.60;;;;;;;7.57;70.54;103152.31;4955890;28;20069;-75
2021/03/02 10:21:08;;;;;;;17.88;13.20;;;;;;;7.82;70.23;103163.34;4966126;28;20150;-75
2021/03/02 10:23:43;;;;;;;19.25;13.35;;;;;;;7.97;70.02;103159.13;4958636;28;20103;-75
2021/03/02 10:26:09;;;;;;;20.75;13.75;;;;;;;8.14;69.99;103155.72;4965573;28;20058;-75
2021/03/02 10:28:36;;;;;;;19.67;13.95;;;;;;;8.36;69.73;103152.09;4956651;28;20141;-76
2021/03/02 10:31:03;;;;;;;23.83;15.73;;;;;;;8.52;69.19;103156.50;4938174;28;20055;-75
2021/03/02 10:33:30;;;;;;;18.83;13.95;;;;;;;8.73;68.85;103156.38;4960095;28;20575;-75
2021/03/02 10:35:57;;;;;;;17.90;13.80;;;;;;;8.93;68.77;103154.50;4959158;28;20066;-75
2021/03/02 10:38:23;;;;;;;20.83;14.30;;;;;;;9.06;67.66;103155.59;4947945;28;20082;-75
2021/03/02 10:40:49;;;;;;;17.67;11.75;;;;;;;9.30;67.00;103153.44;4958811;28;20098;-75
2021/03/02 10:43:16;;;;;;;14.98;11.32;;;;;;;9.52;66.70;103152.31;4959173;28;20498;-73
2021/03/02 10:45:42;;;;;;;16.25;9.90;;;;;;;9.69;65.12;103147.00;4939077;28;20121;-74
2021/03/02 10:48:09;;;;;;;16.98;11.10;;;;;;;9.94;63.48;103153.50;4965493;28;20059;-75
2021/03/02 10:50:35;;;;;;;15.27;9.38;;;;;;;10.14;62.51;103136.69;4957987;28;20081;-74
2021/03/02 10:53:01;;;;;;;11.85;8.50;;;;;;;10.34;61.54;103143.44;4964610;28;20094;-74
2021/03/02 10:55:27;;;;;;;12.43;8.60;;;;;;;10.60;62.03;103148.00;4961465;28;20058;-74
2021/03/02 10:57:53;;;;;;;11.80;8.90;;;;;;;10.74;59.68;103138.47;4964826;28;20070;-74
2021/03/02 11:00:19;;;;;;;14.02;8.75;;;;;;;11.01;59.91;103147.31;4947016;28;20090;-74
2021/03/02 11:02:45;;;;;;;14.55;8.40;;;;;;;11.20;59.16;103140.97;4944673;28;20094;-73
2021/03/02 11:05:13;;;;;;;11.35;8.90;;;;;;;11.33;56.61;103138.44;4965206;28;20167;-74
2021/03/02 11:07:39;;;;;;;14.65;9.05;;;;;;;11.46;57.11;103134.94;4958419;28;20515;-74
2021/03/02 11:10:06;;;;;;;10.88;8.25;;;;;;;11.66;56.23;103143.38;4963618;28;20137;-73
2021/03/02 11:12:32;;;;;;;13.13;9.38;;;;;;;11.81;57.14;103138.94;4958727;28;20466;-75
2021/03/02 11:14:59;;;;;;;13.43;9.18;;;;;;;12.03;56.28;103141.06;4946666;28;20054;-76
2021/03/02 11:17:26;;;;;;;12.02;8.00;;;;;;;12.23;54.72;103129.22;4964761;28;20069;-75
2021/03/02 11:20:20;;;;;;;11.77;8.32;;;;;;;12.38;54.66;103136.09;4955915;28;20093;-74
2021/03/02 11:22:54;;;;;;;12.75;7.75;;;;;;;12.56;53.80;103135.84;4935089;29;20065;-75
2021/03/02 11:25:20;;;;;;;13.70;9.05;;;;;;;12.70;54.36;103121.72;4939549;28;20415;-73
2021/03/02 11:27:46;;;;;;;11.90;8.35;;;;;;;12.85;53.04;103123.31;4955080;28;20066;-75
2021/03/02 11:30:14;;;;;;;15.23;9.02;;;;;;;13.04;52.46;103115.00;4941277;28;20070;-74
2021/03/02 11:32:41;;;;;;;13.10;9.33;;;;;;;13.24;53.57;103117.06;4949349;28;20067;-74
2021/03/02 11:35:09;;;;;;;12.43;9.23;;;;;;;13.42;53.16;103109.69;4957290;28;20145;-75
2021/03/02 11:37:40;;;;;;;13.57;8.88;;;;;;;13.68;52.37;103111.41;4958599;28;20146;-75